Time;durP1;ratioP1;P1;durP2;ratioP2;P2;SDS_P1;SDS_P2;PMS_P1;PMS_P2;Temp;Humidity;BMP_temperature;BMP_pressure;BME280_temperature;BME280_humidity;BME280_pressure;Samples;Min_cycle;Max_cycle;Signal;HPM_P1;HPM_P2
2022/12/29 00:01:35;;;;;;;12.00;3.22;;;;;;;13.61;62.35;101370.63;5002180;28;20037;-53
2022/12/29 00:04:02;;;;;;;16.95;3.88;;;;;;;13.60;61.72;101364.44;4994358;28;20038;-54
2022/12/29 00:06:29;;;;;;;13.57;3.53;;;;;;;13.64;61.98;101365.63;5002616;28;20026;-54
2022/12/29 00:08:55;;;;;;;14.40;3.63;;;;;;;13.56;62.70;101373.94;4992238;28;20061;-53
2022/12/29 00:11:24;;;;;;;18.23;4.30;;;;;;;13.40;63.69;101369.88;4992564;28;20057;-50
2022/12/29 00:16:36;;;;;;;;;;;;;;;13.40;61.63;101367.19;5012294;28;20485;-53
2022/12/29 00:19:04;;;;;;;17.40;4.38;;;;;;;13.39;62.67;101372.78;4998980;28;19956;-54
2022/12/29 00:35:25;;;;;;;16.40;4.32;;;;;;;12.80;64.92;101355.69;4995573;28;20041;-51
2022/12/29 00:46:07;;;;;;;16.30;4.75;;;;;;;12.78;68.14;101371.19;5015009;28;20076;-54
2022/12/29 00:51:18;;;;;;;15.15;4.13;;;;;;;12.74;66.16;101387.91;5004432;28;20040;-52
2022/12/29 00:53:44;;;;;;;15.50;4.88;;;;;;;12.53;65.63;101380.88;5014902;28;20076;-53
2022/12/29 00:56:10;;;;;;;20.85;4.50;;;;;;;12.41;65.90;101386.03;5014872;28;20026;-52
2022/12/29 00:58:37;;;;;;;15.80;3.80;;;;;;;12.52;65.01;101390.81;5015040;28;20484;-52
2022/12/29 01:01:08;;;;;;;16.55;4.15;;;;;;;12.50;64.44;101379.44;5014777;28;20423;-54
2022/12/29 01:03:35;;;;;;;13.38;4.07;;;;;;;12.55;64.37;101362.72;5014279;28;20033;-50
2022/12/29 01:06:04;;;;;;;16.17;4.15;;;;;;;12.41;64.44;101354.66;5011450;28;20403;-51
2022/12/29 01:08:31;;;;;;;15.98;5.07;;;;;;;12.57;66.13;101349.91;5014819;28;20114;-53
2022/12/29 01:11:06;;;;;;;17.63;5.40;;;;;;;12.62;66.95;101339.38;5013684;28;20034;-53
2022/12/29 01:13:33;;;;;;;19.02;4.60;;;;;;;12.53;67.73;101317.25;5013733;28;20032;-50
2022/12/29 01:15:59;;;;;;;29.58;6.07;;;;;;;12.32;68.26;101323.66;5012887;28;20073;-53
2022/12/29 01:18:26;;;;;;;16.50;4.63;;;;;;;12.37;67.96;101323.88;5003140;28;20019;-53
2022/12/29 01:21:03;;;;;;;20.95;4.40;;;;;;;12.52;67.42;101328.22;5001921;28;20022;-53
2022/12/29 01:23:31;;;;;;;17.92;4.80;;;;;;;12.42;67.23;101328.63;5014966;28;20088;-54
2022/12/29 01:26:08;;;;;;;15.70;4.03;;;;;;;12.34;67.17;101318.09;5009563;28;20026;-53
2022/12/29 01:28:34;;;;;;;19.05;4.90;;;;;;;12.46;66.73;101323.69;5003775;28;20033;-53
2022/12/29 01:31:01;;;;;;;18.77;5.07;;;;;;;12.32;66.92;101329.03;5014873;28;20022;-52
2022/12/29 01:33:27;;;;;;;13.45;4.28;;;;;;;12.24;67.34;101331.09;4998480;28;20026;-48
2022/12/29 01:35:54;;;;;;;11.15;3.67;;;;;;;12.20;67.13;101335.22;4994376;28;20030;-52
2022/12/29 01:38:20;;;;;;;12.68;3.90;;;;;;;12.17;67.33;101323.03;5002926;28;20034;-51
2022/12/29 01:40:47;;;;;;;13.75;3.90;;;;;;;12.18;67.18;101324.69;5014506;28;20062;-50
2022/12/29 01:43:14;;;;;;;21.38;5.07;;;;;;;12.05;66.88;101322.00;5014266;28;20072;-49
2022/12/29 01:46:27;;;;;;;15.40;4.60;;;;;;;12.11;67.19;101299.72;5014082;28;20033;-52
2022/12/29 01:49:04;;;;;;;14.40;5.75;;;;;;;12.05;67.41;101295.16;4997102;28;20089;-52
2022/12/29 01:51:33;;;;;;;20.95;5.50;;;;;;;11.54;69.43;101292.94;5014031;28;20022;-54
2022/12/29 01:54:04;;;;;;;18.77;4.65;;;;;;;11.52;70.29;101286.97;5013914;28;20032;-53
2022/12/29 01:56:31;;;;;;;22.35;5.68;;;;;;;11.57;70.39;101271.09;5013773;28;20026;-50
2022/12/29 01:59:06;;;;;;;18.42;5.43;;;;;;;11.64;70.32;101245.94;5013209;28;20025;-53
2022/12/29 02:01:32;;;;;;;;;;;;;;;11.48;70.82;101240.13;5014372;28;20037;-53
2022/12/29 02:03:59;;;;;;;17.45;4.88;;;;;;;11.64;70.47;101231.72;5013163;28;19913;-52
2022/12/29 02:06:52;;;;;;;16.73;5.45;;;;;;;11.83;69.77;101246.22;5006982;28;20034;-52
2022/12/29 02:09:18;;;;;;;18.92;4.50;;;;;;;11.87;69.11;101239.41;5003476;28;20065;-53
2022/12/29 02:11:45;;;;;;;15.20;4.57;;;;;;;11.77;69.14;101229.06;5003924;28;20495;-51
2022/12/29 02:14:14;;;;;;;18.13;5.40;;;;;;;11.74;69.51;101226.78;5007344;28;20034;-52
2022/12/29 02:17:14;;;;;;;14.60;5.03;;;;;;;11.71;69.55;101229.84;5013035;28;20161;-53
2022/12/29 02:19:52;;;;;;;18.83;5.35;;;;;;;11.96;68.99;101254.28;5009376;28;20514;-52
2022/12/29 02:22:32;;;;;;;14.45;4.45;;;;;;;11.85;68.91;101253.03;4995993;28;20030;-53
2022/12/29 02:25:16;;;;;;;20.85;4.75;;;;;;;11.73;69.24;101243.91;5002016;28;20048;-52
2022/12/29 02:27:58;;;;;;;17.50;4.25;;;;;;;11.69;69.30;101248.03;5013284;28;20041;-56
2022/12/29 02:30:48;;;;;;;12.23;4.68;;;;;;;11.65;69.37;101246.75;4997088;28;20041;-55
2022/12/29 02:33:33;;;;;;;15.20;5.30;;;;;;;11.96;68.07;101248.09;5005577;28;20034;-57
2022/12/29 02:36:39;;;;;;;13.52;4.85;;;;;;;11.76;68.17;101248.84;4993119;28;20468;-55
2022/12/29 02:39:29;;;;;;;12.53;5.13;;;;;;;11.18;70.75;101251.16;5000219;28;20034;-56
2022/12/29 02:41:58;;;;;;;20.92;5.70;;;;;;;10.72;73.53;101246.41;5007687;28;20343;-56
2022/12/29 02:44:51;;;;;;;16.15;5.97;;;;;;;10.59;73.92;101243.63;5012056;28;20101;-55
2022/12/29 02:47:36;;;;;;;20.30;5.30;;;;;;;10.10;76.07;101233.75;4993381;28;20547;-55
2022/12/29 02:50:06;;;;;;;16.75;4.70;;;;;;;10.23;75.62;101233.91;4993314;28;20037;-55
2022/12/29 02:52:39;;;;;;;15.70;4.30;;;;;;;10.54;74.37;101235.34;4992650;28;20030;-56
2022/12/29 02:55:06;;;;;;;15.18;4.93;;;;;;;10.70;73.90;101232.38;4996654;28;20080;-55
2022/12/29 02:57:35;;;;;;;26.92;6.28;;;;;;;10.53;73.93;101231.84;5012672;28;20037;-56
2022/12/29 03:00:12;;;;;;;18.80;5.20;;;;;;;10.38;73.80;101225.78;5012946;28;20053;-56
2022/12/29 03:02:54;;;;;;;20.83;6.15;;;;;;;10.17;74.77;101218.63;5013090;28;20041;-56
2022/12/29 03:05:26;;;;;;;16.80;6.15;;;;;;;10.30;74.35;101213.38;5012427;28;20025;-55
2022/12/29 03:08:06;;;;;;;19.20;5.63;;;;;;;10.41;73.86;101225.41;5012616;28;20026;-56
2022/12/29 03:11:02;;;;;;;22.98;5.95;;;;;;;10.61;73.11;101233.56;5012675;28;20074;-53
2022/12/29 03:16:41;;;;;;;16.02;4.88;;;;;;;11.04;70.55;101239.56;4992804;28;20263;-56
2022/12/29 03:19:28;;;;;;;21.95;4.90;;;;;;;10.77;71.65;101233.25;4992722;28;20038;-56
2022/12/29 03:24:49;;;;;;;14.65;4.47;;;;;;;10.94;71.47;101249.81;5009477;28;20041;-56
2022/12/29 03:27:22;;;;;;;25.83;5.35;;;;;;;10.80;72.12;101261.47;5011908;28;20125;-56
2022/12/29 03:29:57;;;;;;;13.00;4.40;;;;;;;11.01;70.89;101272.09;4994759;28;20030;-56
2022/12/29 03:32:28;;;;;;;15.48;5.57;;;;;;;10.82;71.53;101279.00;4992427;28;20026;-56
2022/12/29 03:34:55;;;;;;;11.77;4.25;;;;;;;11.08;70.41;101286.34;4992366;28;20468;-54
2022/12/29 03:37:28;;;;;;;12.35;3.88;;;;;;;11.24;68.82;101300.44;4992374;28;20030;-56
2022/12/29 03:39:56;;;;;;;17.30;4.45;;;;;;;11.06;69.79;101298.31;4992471;28;20030;-56
2022/12/29 03:42:27;;;;;;;21.42;5.07;;;;;;;10.47;71.36;101269.28;4992967;28;20034;-56
2022/12/29 03:44:57;;;;;;;13.48;3.75;;;;;;;10.82;71.34;101265.59;4992473;28;20490;-55
2022/12/29 03:47:24;;;;;;;11.23;3.83;;;;;;;10.68;70.44;101277.28;4992369;28;20468;-56
2022/12/29 03:49:51;;;;;;;9.55;3.80;;;;;;;10.61;71.22;101265.69;4992507;28;20034;-56
2022/12/29 03:52:18;;;;;;;10.85;3.38;;;;;;;10.67;71.22;101275.63;4992350;28;20022;-56
2022/12/29 03:54:44;;;;;;;13.65;4.18;;;;;;;10.94;69.85;101287.31;5008792;28;20026;-56
2022/12/29 03:57:11;;;;;;;16.85;3.90;;;;;;;10.90;69.49;101285.22;5016536;28;20040;-56
2022/12/29 03:59:38;;;;;;;16.92;4.38;;;;;;;10.99;68.78;101295.59;5009989;28;20039;-55
2022/12/29 04:02:04;;;;;;;13.40;4.10;;;;;;;10.90;69.13;101333.44;4998786;28;20062;-55
2022/12/29 04:04:30;;;;;;;10.45;3.58;;;;;;;11.12;67.59;101359.13;4998629;28;20030;-56
2022/12/29 04:06:57;;;;;;;10.85;2.92;;;;;;;10.92;68.36;101366.19;4998746;28;20110;-54
2022/12/29 04:09:23;;;;;;;9.05;3.03;;;;;;;11.25;66.67;101379.81;4998792;28;20480;-56
2022/12/29 04:11:49;;;;;;;13.75;3.63;;;;;;;10.97;67.45;101388.69;4998622;28;20030;-56
2022/12/29 04:14:15;;;;;;;14.52;4.10;;;;;;;10.81;67.79;101376.41;4998343;28;20023;-55
2022/12/29 04:16:42;;;;;;;13.27;3.78;;;;;;;10.53;69.63;101360.34;4981410;28;20037;-55
2022/12/29 04:19:08;;;;;;;12.68;3.25;;;;;;;10.67;69.25;101350.59;5018070;28;20488;-55
2022/12/29 04:21:34;;;;;;;15.70;3.65;;;;;;;10.74;68.94;101346.09;5018097;28;20076;-56
2022/12/29 04:24:01;;;;;;;9.40;3.22;;;;;;;10.75;69.15;101350.41;5011749;28;20030;-56
2022/12/29 04:26:27;;;;;;;12.85;3.65;;;;;;;10.97;68.60;101347.69;5006540;28;20033;-56
2022/12/29 04:28:53;;;;;;;7.93;3.10;;;;;;;10.90;68.94;101317.38;5018261;28;20441;-55
2022/12/29 04:31:19;;;;;;;10.50;3.65;;;;;;;10.82;69.05;101303.09;5017563;28;20108;-56
2022/12/29 04:33:46;;;;;;;18.80;4.10;;;;;;;10.83;69.14;101286.03;5017452;28;20049;-55
2022/12/29 04:36:12;;;;;;;15.25;4.22;;;;;;;11.00;68.81;101264.28;5016689;28;20065;-55
2022/12/29 04:38:38;;;;;;;12.13;3.80;;;;;;;10.97;68.53;101278.06;5017956;28;20030;-56
2022/12/29 04:41:05;;;;;;;12.77;4.13;;;;;;;10.95;68.87;101272.09;5017203;28;20021;-56
2022/12/29 04:43:31;;;;;;;10.55;3.67;;;;;;;10.94;69.14;101260.53;5017829;28;20065;-55
2022/12/29 04:45:57;;;;;;;17.13;4.43;;;;;;;10.68;69.50;101269.22;5017235;28;20040;-56
2022/12/29 04:48:24;;;;;;;14.18;5.03;;;;;;;10.79;69.28;101273.22;5018225;28;20038;-56
2022/12/29 04:50:50;;;;;;;9.27;3.70;;;;;;;10.80;69.21;101281.03;5017372;28;20030;-56
2022/12/29 04:53:17;;;;;;;10.90;4.00;;;;;;;10.80;69.16;101288.25;5018214;28;20032;-56
2022/12/29 04:55:44;;;;;;;16.23;4.45;;;;;;;10.99;68.15;101295.59;5017071;28;20028;-56
2022/12/29 04:58:10;;;;;;;13.35;4.00;;;;;;;10.79;69.04;101274.03;5017787;28;20034;-56
2022/12/29 05:00:37;;;;;;;11.38;3.60;;;;;;;10.49;70.69;101257.38;5016665;28;20128;-56
2022/12/29 05:03:03;;;;;;;12.80;4.10;;;;;;;10.70;69.88;101277.88;5017777;28;20025;-55
2022/12/29 05:05:29;;;;;;;9.18;3.08;;;;;;;10.78;69.56;101304.53;5016816;28;20532;-54
2022/12/29 05:07:55;;;;;;;8.77;3.28;;;;;;;10.79;69.52;101292.78;5015068;28;20026;-56
2022/12/29 05:10:22;;;;;;;10.82;3.03;;;;;;;10.84;69.25;101284.16;5014350;28;20037;-56
2022/12/29 05:12:48;;;;;;;8.32;2.58;;;;;;;10.93;69.15;101276.78;5014537;28;20030;-56
2022/12/29 05:15:14;;;;;;;12.25;3.67;;;;;;;11.04;68.54;101281.59;5013924;28;20377;-55
2022/12/29 05:17:40;;;;;;;9.02;3.45;;;;;;;10.89;68.88;101286.25;5014524;28;20101;-55
2022/12/29 05:20:08;;;;;;;13.93;3.65;;;;;;;10.89;68.97;101271.03;5013455;28;20054;-55
2022/12/29 05:22:34;;;;;;;9.68;3.92;;;;;;;10.67;69.35;101266.75;5014392;28;20034;-54
2022/12/29 05:25:00;;;;;;;19.13;4.28;;;;;;;10.38;70.16;101278.47;5013235;28;20034;-56
2022/12/29 05:27:27;;;;;;;9.10;3.35;;;;;;;10.54;69.66;101280.88;5014540;28;20113;-56
2022/12/29 05:29:53;;;;;;;11.35;3.72;;;;;;;10.66;69.42;101291.84;5014291;28;20033;-56
2022/12/29 05:32:19;;;;;;;9.80;3.92;;;;;;;10.73;69.25;101290.91;5013127;28;20041;-55
2022/12/29 05:34:46;;;;;;;8.93;3.38;;;;;;;10.71;69.08;101263.47;5040134;23;20041;-56
2022/12/29 05:37:12;;;;;;;7.35;3.42;;;;;;;10.70;69.10;101243.09;5054005;28;20025;-56
2022/12/29 05:39:38;;;;;;;15.60;4.38;;;;;;;10.69;69.46;101252.16;5053731;28;20025;-55
2022/12/29 05:42:04;;;;;;;12.35;4.00;;;;;;;10.65;69.77;101234.81;5053830;28;20029;-56
2022/12/29 05:44:31;;;;;;;10.50;3.63;;;;;;;10.51;70.12;101233.91;5053327;28;20025;-56
2022/12/29 05:46:57;;;;;;;11.32;3.85;;;;;;;10.48;70.29;101212.06;5053767;28;20082;-56
2022/12/29 05:49:23;;;;;;;13.38;3.60;;;;;;;10.58;70.22;101189.28;5053868;28;20021;-56
2022/12/29 05:51:49;;;;;;;12.38;3.80;;;;;;;10.67;69.90;101173.88;5054125;28;20025;-57
2022/12/29 05:54:16;;;;;;;13.07;3.25;;;;;;;10.68;70.27;101175.53;5053643;28;20021;-56
2022/12/29 05:56:42;;;;;;;13.07;4.50;;;;;;;10.78;69.82;101197.41;5054053;28;20029;-56
2022/12/29 05:59:08;;;;;;;11.60;3.60;;;;;;;10.70;70.22;101200.25;5054021;28;20143;-56
2022/12/29 06:01:34;;;;;;;8.63;3.65;;;;;;;10.69;70.37;101192.41;5053562;28;20079;-56
2022/12/29 06:04:01;;;;;;;15.75;3.97;;;;;;;10.69;70.32;101195.09;5053176;28;20474;-56
2022/12/29 06:06:27;;;;;;;11.07;3.80;;;;;;;10.80;70.29;101198.03;5053378;28;20389;-56
2022/12/29 06:08:53;;;;;;;8.93;3.92;;;;;;;10.78;70.43;101205.47;5053174;28;20024;-56
2022/12/29 06:11:19;;;;;;;15.15;5.50;;;;;;;10.87;70.30;101216.00;5053328;28;20036;-56
2022/12/29 06:13:46;;;;;;;16.15;5.60;;;;;;;10.79;70.13;101220.50;5053311;28;20048;-56
2022/12/29 06:16:12;;;;;;;12.32;5.25;;;;;;;10.74;70.18;101206.88;5052872;28;20091;-56
2022/12/29 06:18:38;;;;;;;11.48;4.85;;;;;;;10.78;70.42;101192.06;5053044;28;20021;-56
2022/12/29 06:21:05;;;;;;;12.02;4.82;;;;;;;10.79;70.42;101190.22;5051976;28;20063;-56
2022/12/29 06:23:32;;;;;;;17.65;5.85;;;;;;;10.74;71.00;101173.91;5053079;28;20483;-55
2022/12/29 06:25:58;;;;;;;18.30;6.22;;;;;;;10.76;70.68;101161.97;5052793;28;20103;-54
2022/12/29 06:28:24;;;;;;;13.75;5.97;;;;;;;10.76;70.87;101155.78;5052987;28;20021;-54
2022/12/29 06:30:50;;;;;;;18.25;6.45;;;;;;;10.76;70.89;101161.97;5052001;28;20036;-55
2022/12/29 06:33:17;;;;;;;17.05;5.40;;;;;;;10.71;71.12;101167.09;5015290;28;20026;-56
2022/12/29 06:35:43;;;;;;;16.08;4.80;;;;;;;10.63;71.37;101161.91;5032450;28;20048;-54
2022/12/29 06:38:10;;;;;;;12.70;5.10;;;;;;;10.67;71.22;101179.25;5032972;28;20475;-55
2022/12/29 06:40:36;;;;;;;14.77;4.32;;;;;;;10.60;71.53;101182.88;5043303;28;20033;-55
2022/12/29 06:43:02;;;;;;;10.10;4.43;;;;;;;10.75;71.14;101165.66;5052629;28;20033;-55
2022/12/29 06:45:28;;;;;;;8.63;3.65;;;;;;;10.80;70.97;101173.94;5052420;28;20021;-55
2022/12/29 06:47:54;;;;;;;12.20;4.50;;;;;;;10.86;71.42;101166.13;5052563;28;20079;-55
2022/12/29 06:50:21;;;;;;;15.52;4.13;;;;;;;10.67;72.21;101179.25;5052473;28;20032;-56
2022/12/29 06:52:47;;;;;;;16.15;5.22;;;;;;;10.67;72.34;101163.19;5052319;28;20024;-56
2022/12/29 06:55:14;;;;;;;15.95;4.90;;;;;;;10.71;72.12;101166.25;5051991;28;20033;-55
2022/12/29 06:57:40;;;;;;;9.52;3.63;;;;;;;10.71;72.25;101167.09;5052579;28;20032;-56
2022/12/29 07:00:07;;;;;;;12.45;3.95;;;;;;;10.70;72.39;101173.47;5052181;28;20060;-56
2022/12/29 07:02:33;;;;;;;11.48;4.00;;;;;;;10.98;72.30;101167.22;5052670;28;20126;-56
2022/12/29 07:04:59;;;;;;;20.48;5.45;;;;;;;10.80;72.52;101163.22;5051882;28;20021;-56
2022/12/29 07:07:26;;;;;;;16.05;5.25;;;;;;;10.72;73.00;101158.06;5052149;28;20451;-55
2022/12/29 07:09:52;;;;;;;11.15;4.25;;;;;;;10.76;73.07;101140.53;5052176;28;20029;-55
2022/12/29 07:12:18;;;;;;;8.60;4.38;;;;;;;10.73;73.48;101153.53;5052409;28;20029;-56
2022/12/29 07:14:44;;;;;;;13.15;4.80;;;;;;;10.78;73.56;101121.63;5051866;28;20470;-56
2022/12/29 07:17:11;;;;;;;14.15;6.07;;;;;;;10.73;73.72;101113.38;5051466;28;20111;-56
2022/12/29 07:19:37;;;;;;;12.38;5.10;;;;;;;10.70;73.78;101119.94;5052156;28;20411;-56
2022/12/29 07:22:03;;;;;;;12.80;4.75;;;;;;;10.80;73.68;101133.78;5052032;28;20494;-56
2022/12/29 07:24:29;;;;;;;10.73;4.28;;;;;;;10.78;73.72;101145.72;5051575;28;20124;-56
2022/12/29 07:26:56;;;;;;;14.05;4.68;;;;;;;10.87;73.22;101163.25;5051752;28;20056;-55
2022/12/29 07:29:22;;;;;;;8.43;3.60;;;;;;;10.80;73.52;101176.63;5051814;28;20033;-57
2022/12/29 07:31:48;;;;;;;13.82;4.32;;;;;;;10.81;73.09;101172.91;5042764;28;20032;-56
2022/12/29 07:34:15;;;;;;;12.80;3.45;;;;;;;10.74;73.97;101182.78;5031350;28;20045;-56
2022/12/29 07:36:41;;;;;;;15.63;3.78;;;;;;;10.68;74.21;101185.41;5031795;28;20027;-57
2022/12/29 07:39:07;;;;;;;12.63;3.95;;;;;;;10.45;76.24;101185.72;5031933;28;20021;-57
2022/12/29 07:41:34;;;;;;;11.20;3.90;;;;;;;10.46;76.17;101177.47;5031693;28;20021;-57
2022/12/29 07:44:00;;;;;;;15.45;4.93;;;;;;;10.87;74.61;101179.31;5031550;28;20112;-57
2022/12/29 07:46:27;;;;;;;12.98;4.07;;;;;;;10.73;74.75;101191.00;5031732;28;20368;-56
2022/12/29 07:48:53;;;;;;;14.88;4.40;;;;;;;10.59;75.66;101200.81;5031695;28;20026;-56
2022/12/29 07:51:19;;;;;;;11.50;3.65;;;;;;;10.73;75.13;101231.16;5031673;28;20025;-57
2022/12/29 07:53:45;;;;;;;11.88;3.90;;;;;;;10.60;75.40;101242.59;5032067;28;20459;-57
2022/12/29 07:56:12;;;;;;;14.93;4.32;;;;;;;10.56;75.65;101225.31;5031379;28;20041;-56
2022/12/29 07:58:38;;;;;;;11.63;3.55;;;;;;;10.54;76.14;101201.38;5031453;28;20083;-56
2022/12/29 08:01:05;;;;;;;10.18;3.40;;;;;;;10.57;75.97;101222.41;5031822;28;20079;-57
2022/12/29 08:03:31;;;;;;;8.48;3.70;;;;;;;10.55;76.20;101207.59;5031639;28;20029;-56
2022/12/29 08:05:57;;;;;;;11.30;3.55;;;;;;;10.62;76.11;101215.66;5031358;28;20155;-57
2022/12/29 08:08:24;;;;;;;14.10;4.13;;;;;;;10.44;76.98;101221.53;5031514;28;20064;-56
2022/12/29 08:10:50;;;;;;;9.02;3.15;;;;;;;10.24;78.37;101187.41;5031218;28;20048;-55
2022/12/29 08:13:16;;;;;;;11.45;4.03;;;;;;;10.00;79.27;101191.31;5031499;28;20025;-56
2022/12/29 08:15:42;;;;;;;10.23;3.33;;;;;;;9.90;79.90;101165.94;5031130;28;20061;-56
2022/12/29 08:18:08;;;;;;;18.98;3.85;;;;;;;10.03;79.86;101166.84;5031287;28;20122;-56
2022/12/29 08:20:35;;;;;;;12.80;4.30;;;;;;;10.15;78.72;101169.00;5031304;28;20037;-56
2022/12/29 08:23:01;;;;;;;17.23;4.18;;;;;;;10.50;77.62;101172.56;5031247;28;20026;-57
2022/12/29 08:25:27;;;;;;;10.20;3.83;;;;;;;10.41;77.48;101163.03;5030761;28;20083;-56
2022/12/29 08:27:53;;;;;;;8.18;3.50;;;;;;;10.32;78.09;101152.47;5031607;28;20480;-55
2022/12/29 08:30:20;;;;;;;7.95;2.67;;;;;;;10.30;78.13;101119.75;5031242;28;20022;-57
2022/12/29 08:32:46;;;;;;;8.57;3.15;;;;;;;10.27;78.41;101122.84;5031041;28;20036;-57
2022/12/29 08:35:12;;;;;;;8.10;3.05;;;;;;;10.47;78.20;101120.25;5030649;28;20050;-56
2022/12/29 08:37:38;;;;;;;10.35;2.42;;;;;;;10.40;78.33;101127.41;5031441;28;20028;-56
2022/12/29 08:40:05;;;;;;;8.77;2.60;;;;;;;10.28;78.93;101112.94;5031448;28;20032;-57
2022/12/29 08:42:32;;;;;;;9.45;2.90;;;;;;;10.32;78.90;101106.97;5031329;28;20472;-56
2022/12/29 08:44:59;;;;;;;7.18;2.47;;;;;;;10.36;78.71;101104.75;5035232;28;20033;-57
2022/12/29 08:47:26;;;;;;;9.77;3.28;;;;;;;10.13;79.98;101104.19;5034853;28;20032;-57
2022/12/29 08:49:53;;;;;;;9.55;2.45;;;;;;;10.16;79.84;101088.56;5035237;28;20421;-57
2022/12/29 08:52:19;;;;;;;7.43;2.28;;;;;;;10.25;79.75;101095.44;5034806;28;20033;-57
2022/12/29 08:54:46;;;;;;;8.15;2.33;;;;;;;10.47;78.47;101104.19;5034419;28;20396;-57
2022/12/29 08:57:12;;;;;;;7.40;1.90;;;;;;;10.38;78.58;101097.34;5034659;28;20061;-55
2022/12/29 08:59:38;;;;;;;8.63;2.53;;;;;;;10.50;78.48;101097.63;5034936;28;20108;-55
2022/12/29 09:02:05;;;;;;;9.75;2.00;;;;;;;10.36;78.77;101099.41;5037545;28;20142;-57
2022/12/29 09:04:31;;;;;;;11.95;2.30;;;;;;;10.42;78.57;101105.81;5050962;28;20048;-53
2022/12/29 09:06:57;;;;;;;9.13;2.22;;;;;;;10.53;78.00;101086.50;5047368;28;20104;-55
2022/12/29 09:09:23;;;;;;;7.47;2.40;;;;;;;10.42;78.51;101084.41;5046331;28;20558;-55
2022/12/29 09:11:49;;;;;;;14.02;2.55;;;;;;;10.46;78.14;101072.28;5051606;28;20067;-56
2022/12/29 09:14:16;;;;;;;10.05;2.92;;;;;;;10.37;77.59;101065.44;5051863;28;20120;-53
2022/12/29 09:19:27;;;;;;;10.57;3.25;;;;;;;10.21;77.80;101099.47;5043719;28;20104;-54
2022/12/29 09:21:53;;;;;;;8.27;2.15;;;;;;;10.29;77.32;101102.03;5051363;28;20111;-55
2022/12/29 09:24:19;;;;;;;8.10;2.40;;;;;;;10.46;77.02;101099.88;5054133;28;20033;-55
2022/12/29 09:26:45;;;;;;;7.03;2.40;;;;;;;10.35;77.43;101121.00;5054167;28;20103;-55
2022/12/29 09:29:12;;;;;;;9.75;1.92;;;;;;;10.31;77.83;101102.66;5054120;28;20540;-54
2022/12/29 09:31:38;;;;;;;9.40;2.40;;;;;;;10.27;78.11;101095.22;5054105;28;20108;-54
2022/12/29 09:34:04;;;;;;;10.10;3.45;;;;;;;10.50;77.48;101108.34;5045961;28;20120;-54
2022/12/29 09:36:30;;;;;;;13.23;2.65;;;;;;;10.35;78.12;101103.09;5053981;28;20048;-55
2022/12/29 09:38:56;;;;;;;9.40;2.45;;;;;;;10.28;78.57;101099.56;5054243;28;20487;-55
2022/12/29 09:41:30;;;;;;;10.57;2.95;;;;;;;10.55;78.27;101103.22;5053797;28;20482;-55
2022/12/29 09:44:07;;;;;;;13.35;3.17;;;;;;;10.17;78.90;101114.28;5053790;28;20439;-56
2022/12/29 09:46:40;;;;;;;11.95;2.63;;;;;;;10.05;79.22;101119.38;5054042;28;20032;-54
2022/12/29 09:49:25;;;;;;;11.32;2.65;;;;;;;9.97;79.27;101137.41;5053940;28;20075;-54
2022/12/29 09:52:03;;;;;;;9.73;2.53;;;;;;;10.00;79.06;101115.63;5053602;28;20036;-54
2022/12/29 09:54:35;;;;;;;13.35;3.08;;;;;;;9.81;80.53;101102.94;5033492;28;20033;-54
2022/12/29 09:57:02;;;;;;;33.15;3.95;;;;;;;9.76;80.36;101108.84;5033901;28;20117;-56
2022/12/29 09:59:41;;;;;;;14.05;3.47;;;;;;;9.72;81.32;101083.56;5033704;28;20168;-55
2022/12/29 10:02:41;;;;;;;16.02;3.60;;;;;;;9.67;82.27;101069.94;5033585;28;20029;-55
2022/12/29 10:05:46;;;;;;;14.02;3.40;;;;;;;9.88;82.11;101044.97;5033179;28;20061;-55
2022/12/29 10:08:33;;;;;;;16.75;3.63;;;;;;;9.89;81.63;101071.53;5030549;28;20537;-56
2022/12/29 10:11:04;;;;;;;13.40;3.53;;;;;;;9.69;82.77;101076.72;5042925;28;20479;-56
2022/12/29 10:13:57;;;;;;;11.77;3.50;;;;;;;9.41;84.71;101065.19;5048208;28;20025;-56
2022/12/29 10:16:23;;;;;;;15.15;3.90;;;;;;;9.61;84.49;101078.75;5045672;28;20048;-56
2022/12/29 10:19:04;;;;;;;15.88;4.55;;;;;;;10.04;82.98;101125.72;5052038;28;20502;-56
2022/12/29 10:21:52;;;;;;;14.93;3.13;;;;;;;9.98;82.55;101131.03;5052196;28;20025;-56
2022/12/29 10:24:21;;;;;;;22.92;3.47;;;;;;;9.93;83.38;101130.78;5051504;28;20100;-56
2022/12/29 10:26:51;;;;;;;15.00;3.72;;;;;;;9.74;84.07;101130.44;5045677;28;20023;-56
2022/12/29 10:29:25;;;;;;;11.00;3.25;;;;;;;9.88;84.05;101141.22;5037602;28;20021;-56
2022/12/29 10:32:03;;;;;;;7.85;2.83;;;;;;;9.99;83.35;101140.69;5053033;28;20111;-56
2022/12/29 10:34:38;;;;;;;11.88;3.10;;;;;;;10.04;83.48;101139.09;5034444;28;20052;-56
2022/12/29 10:37:09;;;;;;;13.07;2.58;;;;;;;10.19;83.03;101136.31;5050948;28;20049;-56
2022/12/29 10:39:49;;;;;;;12.27;2.67;;;;;;;10.25;82.91;101142.75;5052060;28;20375;-56
2022/12/29 10:42:25;;;;;;;10.63;2.80;;;;;;;10.25;83.01;101148.09;5051544;28;20033;-56
2022/12/29 10:44:51;;;;;;;6.65;2.33;;;;;;;10.26;82.89;101165.81;5051192;28;20116;-56
2022/12/29 10:47:23;;;;;;;8.77;2.42;;;;;;;10.27;82.82;101154.06;5051506;28;20037;-56
2022/12/29 10:49:50;;;;;;;11.52;3.10;;;;;;;10.26;83.17;101131.84;5051436;28;20017;-56
2022/12/29 10:52:19;;;;;;;7.15;2.40;;;;;;;10.39;82.59;101133.81;5050904;28;20029;-56
2022/12/29 10:54:57;;;;;;;11.82;2.70;;;;;;;10.32;83.02;101135.59;5048449;28;20053;-56
2022/12/29 10:57:45;;;;;;;7.43;2.17;;;;;;;10.34;82.94;101149.63;5032348;28;20030;-56
2022/12/29 11:00:12;;;;;;;11.10;2.78;;;;;;;10.34;82.89;101146.13;5052414;28;20025;-56
2022/12/29 11:03:03;;;;;;;9.98;3.10;;;;;;;10.33;83.09;101158.69;5052052;28;20041;-56
2022/12/29 11:05:42;;;;;;;8.25;2.85;;;;;;;10.49;82.83;101155.69;5036076;28;20029;-56
2022/12/29 11:08:17;;;;;;;14.55;2.97;;;;;;;10.46;82.67;101157.91;5045669;28;20112;-56
2022/12/29 11:10:46;;;;;;;9.43;2.75;;;;;;;10.36;83.06;101166.28;5052243;28;20032;-56
2022/12/29 11:13:17;;;;;;;8.73;2.58;;;;;;;10.43;83.11;101152.94;5050154;28;20051;-56
2022/12/29 11:15:46;;;;;;;15.15;5.55;;;;;;;10.37;83.42;101161.75;5051616;28;20068;-56
2022/12/29 11:18:26;;;;;;;13.55;6.93;;;;;;;10.38;83.45;101158.88;5051930;28;20025;-56
2022/12/29 11:21:01;;;;;;;20.13;8.10;;;;;;;10.44;83.40;101151.94;5052077;28;20487;-56
2022/12/29 11:23:38;;;;;;;17.85;7.78;;;;;;;10.39;83.31;101141.81;5051739;28;20029;-56
2022/12/29 11:26:10;;;;;;;25.00;8.20;;;;;;;10.35;83.95;101147.75;5051941;28;20067;-56
2022/12/29 11:28:38;;;;;;;16.23;6.78;;;;;;;10.44;83.51;101143.91;5051990;28;20104;-56
2022/12/29 11:31:06;;;;;;;13.93;5.57;;;;;;;10.44;83.51;101141.25;5051855;28;20090;-56
2022/12/29 11:33:35;;;;;;;14.07;6.68;;;;;;;10.38;83.56;101145.50;5051033;28;20109;-59
2022/12/29 11:36:29;;;;;;;11.57;5.63;;;;;;;10.41;83.61;101153.16;5051642;28;20032;-56
2022/12/29 11:38:56;;;;;;;11.93;4.97;;;;;;;10.59;82.77;101168.69;5050017;28;20036;-55
2022/12/29 11:41:28;;;;;;;10.15;3.97;;;;;;;10.68;82.33;101154.13;5051135;28;20040;-56
2022/12/29 11:43:59;;;;;;;16.55;3.22;;;;;;;10.44;83.04;101152.78;5044303;28;20009;-57
2022/12/29 11:46:31;;;;;;;8.48;3.38;;;;;;;10.46;82.91;101160.59;5031854;28;20411;-56
2022/12/29 11:49:00;;;;;;;12.48;3.75;;;;;;;10.45;82.82;101164.28;5033304;28;20539;-57
2022/12/29 11:51:39;;;;;;;16.15;3.80;;;;;;;10.40;83.05;101164.88;5050634;28;20033;-57
2022/12/29 11:54:06;;;;;;;9.32;2.90;;;;;;;10.35;83.57;101143.25;5050029;28;20426;-57
2022/12/29 11:56:37;;;;;;;11.73;3.15;;;;;;;10.58;83.05;101137.59;5050392;28;20025;-57
2022/12/29 11:59:29;;;;;;;10.48;3.40;;;;;;;10.46;83.09;101139.19;5050418;28;20043;-55
2022/12/29 12:01:58;;;;;;;11.23;2.90;;;;;;;10.48;83.12;101127.25;5050448;28;20182;-56
2022/12/29 12:04:34;;;;;;;8.18;2.78;;;;;;;10.42;83.31;101121.88;5049651;28;20059;-56
2022/12/29 12:07:15;;;;;;;9.40;3.50;;;;;;;10.43;83.32;101112.81;5050610;28;20021;-56
2022/12/29 12:10:03;;;;;;;9.32;2.92;;;;;;;10.39;83.73;101082.13;5039769;28;20021;-56